sensor_id;sensor_type;location;lat;lon;timestamp;pressure;altitude;pressure_sealevel;temperature;humidity
65175;BME280;51761;42.126;24.752;2023-02-04T00:01:19;99542.34;;;4.98;52.00
65175;BME280;51761;42.126;24.752;2023-02-04T00:03:45;99563.72;;;5.08;52.45
65175;BME280;51761;42.126;24.752;2023-02-04T00:06:10;99556.66;;;5.14;51.90
65175;BME280;51761;42.126;24.752;2023-02-04T00:08:36;99540.41;;;5.09;54.11
65175;BME280;51761;42.126;24.752;2023-02-04T00:11:02;99555.47;;;5.15;54.16
65175;BME280;51761;42.126;24.752;2023-02-04T00:13:28;99519.34;;;4.84;53.21
65175;BME280;51761;42.126;24.752;2023-02-04T00:15:53;99545.50;;;5.00;53.21
65175;BME280;51761;42.126;24.752;2023-02-04T00:18:19;99516.09;;;4.71;53.87
65175;BME280;51761;42.126;24.752;2023-02-04T00:20:44;99541.03;;;4.75;54.12
65175;BME280;51761;42.126;24.752;2023-02-04T00:23:10;99535.56;;;4.85;53.05
65175;BME280;51761;42.126;24.752;2023-02-04T00:25:36;99536.84;;;5.02;52.55
65175;BME280;51761;42.126;24.752;2023-02-04T00:28:01;99516.59;;;4.91;51.78
65175;BME280;51761;42.126;24.752;2023-02-04T00:30:28;99528.06;;;4.93;52.12
65175;BME280;51761;42.126;24.752;2023-02-04T00:32:53;99533.63;;;4.96;53.00
65175;BME280;51761;42.126;24.752;2023-02-04T00:35:21;99516.63;;;4.94;52.78
65175;BME280;51761;42.126;24.752;2023-02-04T00:37:47;99531.31;;;5.05;52.97
65175;BME280;51761;42.126;24.752;2023-02-04T00:40:13;99528.59;;;5.23;52.58
65175;BME280;51761;42.126;24.752;2023-02-04T00:42:39;99527.41;;;5.24;53.00
65175;BME280;51761;42.126;24.752;2023-02-04T00:45:05;99500.84;;;5.05;53.30
65175;BME280;51761;42.126;24.752;2023-02-04T00:47:30;99527.81;;;5.22;52.13
65175;BME280;51761;42.126;24.752;2023-02-04T00:49:56;99504.38;;;4.95;54.36
65175;BME280;51761;42.126;24.752;2023-02-04T00:52:22;99499.69;;;5.03;54.01
65175;BME280;51761;42.126;24.752;2023-02-04T00:54:48;99527.06;;;5.32;52.58
65175;BME280;51761;42.126;24.752;2023-02-04T00:57:14;99525.44;;;5.17;54.53
65175;BME280;51761;42.126;24.752;2023-02-04T00:59:40;99494.91;;;5.00;54.91
65175;BME280;51761;42.126;24.752;2023-02-04T01:02:05;99498.94;;;5.20;54.82
65175;BME280;51761;42.126;24.752;2023-02-04T01:04:31;99509.66;;;5.35;53.81
65175;BME280;51761;42.126;24.752;2023-02-04T01:06:56;99505.34;;;5.45;51.63
65175;BME280;51761;42.126;24.752;2023-02-04T01:09:22;99491.44;;;5.20;53.51
65175;BME280;51761;42.126;24.752;2023-02-04T01:11:48;99494.63;;;5.26;52.94
65175;BME280;51761;42.126;24.752;2023-02-04T01:14:14;99479.97;;;5.25;52.27
65175;BME280;51761;42.126;24.752;2023-02-04T01:16:40;99475.25;;;5.29;52.86
65175;BME280;51761;42.126;24.752;2023-02-04T01:19:05;99452.28;;;5.18;51.70
65175;BME280;51761;42.126;24.752;2023-02-04T01:21:31;99463.34;;;5.18;50.45
65175;BME280;51761;42.126;24.752;2023-02-04T01:23:56;99436.41;;;5.08;50.70
65175;BME280;51761;42.126;24.752;2023-02-04T01:26:22;99451.47;;;5.11;51.63
65175;BME280;51761;42.126;24.752;2023-02-04T01:28:48;99445.16;;;5.10;51.16
65175;BME280;51761;42.126;24.752;2023-02-04T01:31:13;99437.22;;;5.02;50.83
65175;BME280;51761;42.126;24.752;2023-02-04T01:33:39;99414.25;;;4.94;50.04
65175;BME280;51761;42.126;24.752;2023-02-04T01:36:05;99406.72;;;4.88;50.71
65175;BME280;51761;42.126;24.752;2023-02-04T01:38:30;99401.56;;;4.86;51.12
65175;BME280;51761;42.126;24.752;2023-02-04T01:40:56;99378.63;;;4.79;51.08
65175;BME280;51761;42.126;24.752;2023-02-04T01:43:22;99381.78;;;4.77;51.41
65175;BME280;51761;42.126;24.752;2023-02-04T01:45:48;99391.63;;;4.71;51.71
65175;BME280;51761;42.126;24.752;2023-02-04T01:48:17;99388.53;;;4.87;51.67
65175;BME280;51761;42.126;24.752;2023-02-04T01:51:01;99386.19;;;4.99;51.14
65175;BME280;51761;42.126;24.752;2023-02-04T01:53:28;99383.03;;;4.97;50.99
65175;BME280;51761;42.126;24.752;2023-02-04T01:55:53;99383.03;;;4.97;50.49
65175;BME280;51761;42.126;24.752;2023-02-04T01:58:19;99382.59;;;4.92;51.18
65175;BME280;51761;42.126;24.752;2023-02-04T02:00:44;99357.25;;;4.72;51.85
65175;BME280;51761;42.126;24.752;2023-02-04T02:03:10;99374.25;;;4.81;51.90
65175;BME280;51761;42.126;24.752;2023-02-04T02:05:42;99373.94;;;4.97;50.97
65175;BME280;51761;42.126;24.752;2023-02-04T02:08:09;99366.44;;;5.08;50.96
65175;BME280;51761;42.126;24.752;2023-02-04T02:10:36;99369.22;;;5.11;51.15
65175;BME280;51761;42.126;24.752;2023-02-04T02:13:04;99354.97;;;5.09;51.29
65175;BME280;51761;42.126;24.752;2023-02-04T02:15:30;99355.78;;;5.24;50.57
65175;BME280;51761;42.126;24.752;2023-02-04T02:17:55;99360.53;;;5.37;50.59
65175;BME280;51761;42.126;24.752;2023-02-04T02:20:23;99326.53;;;5.12;51.11
65175;BME280;51761;42.126;24.752;2023-02-04T02:26:13;99345.53;;;5.35;50.83
65175;BME280;51761;42.126;24.752;2023-02-04T02:28:39;99343.94;;;5.30;51.03
65175;BME280;51761;42.126;24.752;2023-02-04T02:31:05;99334.06;;;5.43;50.91
65175;BME280;51761;42.126;24.752;2023-02-04T02:33:31;99328.91;;;5.52;50.28
65175;BME280;51761;42.126;24.752;2023-02-04T02:35:56;99329.69;;;5.53;50.92
65175;BME280;51761;42.126;24.752;2023-02-04T02:38:22;99337.22;;;5.35;52.12
65175;BME280;51761;42.126;24.752;2023-02-04T02:40:48;99300.81;;;5.15;53.52
65175;BME280;51761;42.126;24.752;2023-02-04T02:43:16;99318.63;;;5.42;53.18
65175;BME280;51761;42.126;24.752;2023-02-04T02:45:43;99314.66;;;5.50;52.15
65175;BME280;51761;42.126;24.752;2023-02-04T02:48:10;99299.22;;;5.35;52.20
65175;BME280;51761;42.126;24.752;2023-02-04T02:50:36;99296.88;;;5.23;53.17
65175;BME280;51761;42.126;24.752;2023-02-04T02:53:02;99301.22;;;5.42;51.57
65175;BME280;51761;42.126;24.752;2023-02-04T02:55:29;99307.53;;;5.35;51.61
65175;BME280;51761;42.126;24.752;2023-02-04T02:57:55;99288.97;;;5.25;52.69
65175;BME280;51761;42.126;24.752;2023-02-04T03:00:22;99299.25;;;5.14;53.75
65175;BME280;51761;42.126;24.752;2023-02-04T03:03:05;99286.56;;;5.06;53.07
65175;BME280;51761;42.126;24.752;2023-02-04T03:05:36;99279.47;;;5.09;53.43
65175;BME280;51761;42.126;24.752;2023-02-04T03:08:05;99280.25;;;5.23;53.56
65175;BME280;51761;42.126;24.752;2023-02-04T03:10:32;99254.94;;;5.04;54.17
65175;BME280;51761;42.126;24.752;2023-02-04T03:12:58;99274.34;;;5.14;54.35
65175;BME280;51761;42.126;24.752;2023-02-04T03:15:24;99249.00;;;4.91;54.20
65175;BME280;51761;42.126;24.752;2023-02-04T03:17:49;99270.75;;;5.14;52.25
65175;BME280;51761;42.126;24.752;2023-02-04T03:20:21;99256.91;;;5.21;51.58
65175;BME280;51761;42.126;24.752;2023-02-04T03:22:48;99236.75;;;4.96;51.45
65175;BME280;51761;42.126;24.752;2023-02-04T03:25:13;99264.44;;;5.06;51.77
65175;BME280;51761;42.126;24.752;2023-02-04T03:27:39;99279.06;;;5.00;51.92
65175;BME280;51761;42.126;24.752;2023-02-04T03:30:05;99258.50;;;4.97;52.18
65175;BME280;51761;42.126;24.752;2023-02-04T03:32:31;99252.97;;;5.04;51.60
65175;BME280;51761;42.126;24.752;2023-02-04T03:34:56;99249.00;;;5.05;51.55
65175;BME280;51761;42.126;24.752;2023-02-04T03:37:22;99251.38;;;5.03;51.60
65175;BME280;51761;42.126;24.752;2023-02-04T03:39:47;99247.44;;;5.04;51.77
65175;BME280;51761;42.126;24.752;2023-02-04T03:42:13;99263.66;;;5.16;51.75
65175;BME280;51761;42.126;24.752;2023-02-04T03:44:38;99242.69;;;5.12;51.77
65175;BME280;51761;42.126;24.752;2023-02-04T03:47:04;99234.38;;;5.08;52.38
65175;BME280;51761;42.126;24.752;2023-02-04T03:49:29;99249.00;;;5.05;54.89
65175;BME280;51761;42.126;24.752;2023-02-04T03:51:56;99251.41;;;5.17;53.11
65175;BME280;51761;42.126;24.752;2023-02-04T03:54:22;99239.13;;;5.29;51.70
65175;BME280;51761;42.126;24.752;2023-02-04T03:56:47;99229.25;;;5.24;53.49
65175;BME280;51761;42.126;24.752;2023-02-04T03:59:13;99216.19;;;5.21;51.32
65175;BME280;51761;42.126;24.752;2023-02-04T04:01:38;99218.97;;;5.25;51.65
65175;BME280;51761;42.126;24.752;2023-02-04T04:04:04;99218.97;;;5.18;52.07
65175;BME280;51761;42.126;24.752;2023-02-04T04:06:29;99209.88;;;5.10;51.85
65175;BME280;51761;42.126;24.752;2023-02-04T04:08:56;99203.94;;;5.08;52.08
65175;BME280;51761;42.126;24.752;2023-02-04T04:11:21;99194.84;;;4.94;52.19
65175;BME280;51761;42.126;24.752;2023-02-04T04:13:47;99198.81;;;4.89;52.94
65175;BME280;51761;42.126;24.752;2023-02-04T04:16:12;99194.47;;;4.85;53.17
65175;BME280;51761;42.126;24.752;2023-02-04T04:18:38;99195.25;;;4.89;52.51
65175;BME280;51761;42.126;24.752;2023-02-04T04:21:03;99196.03;;;4.86;52.47
65175;BME280;51761;42.126;24.752;2023-02-04T04:23:29;99181.44;;;4.85;51.77
65175;BME280;51761;42.126;24.752;2023-02-04T04:25:54;99173.94;;;4.82;51.88
65175;BME280;51761;42.126;24.752;2023-02-04T04:28:20;99164.44;;;4.73;52.22
65175;BME280;51761;42.126;24.752;2023-02-04T04:30:45;99188.94;;;4.95;52.46
65175;BME280;51761;42.126;24.752;2023-02-04T04:33:11;99188.94;;;4.88;53.36
65175;BME280;51761;42.126;24.752;2023-02-04T04:35:36;99183.81;;;4.73;53.67
65175;BME280;51761;42.126;24.752;2023-02-04T04:38:02;99201.19;;;4.87;52.58
65175;BME280;51761;42.126;24.752;2023-02-04T04:40:28;99171.53;;;4.77;52.73
65175;BME280;51761;42.126;24.752;2023-02-04T04:42:53;99171.16;;;4.82;53.21
65175;BME280;51761;42.126;24.752;2023-02-04T04:45:19;99169.56;;;4.81;52.32
65175;BME280;51761;42.126;24.752;2023-02-04T04:47:45;99150.19;;;4.81;51.83
65175;BME280;51761;42.126;24.752;2023-02-04T04:50:11;99164.44;;;4.83;53.60
65175;BME280;51761;42.126;24.752;2023-02-04T04:52:36;99158.50;;;4.61;53.85
65175;BME280;51761;42.126;24.752;2023-02-04T04:55:02;99153.78;;;4.85;54.21
65175;BME280;51761;42.126;24.752;2023-02-04T04:57:28;99140.72;;;4.89;53.96
65175;BME280;51761;42.126;24.752;2023-02-04T04:59:53;99162.06;;;4.78;55.02
65175;BME280;51761;42.126;24.752;2023-02-04T05:02:19;99134.41;;;4.51;56.16
65175;BME280;51761;42.126;24.752;2023-02-04T05:04:44;99159.28;;;4.89;54.34
65175;BME280;51761;42.126;24.752;2023-02-04T05:07:10;99161.69;;;4.83;55.24
65175;BME280;51761;42.126;24.752;2023-02-04T05:09:35;99162.88;;;4.82;55.12
65175;BME280;51761;42.126;24.752;2023-02-04T05:12:01;99172.31;;;4.74;54.60
65175;BME280;51761;42.126;24.752;2023-02-04T05:14:27;99159.72;;;4.70;54.86
65175;BME280;51761;42.126;24.752;2023-02-04T05:16:52;99173.50;;;4.91;54.15
65175;BME280;51761;42.126;24.752;2023-02-04T05:19:18;99167.59;;;4.92;54.54
65175;BME280;51761;42.126;24.752;2023-02-04T05:21:43;99164.41;;;4.97;53.51
65175;BME280;51761;42.126;24.752;2023-02-04T05:24:09;99165.19;;;5.19;54.21
65175;BME280;51761;42.126;24.752;2023-02-04T05:26:34;99154.13;;;5.12;55.78
65175;BME280;51761;42.126;24.752;2023-02-04T05:29:00;99155.69;;;5.20;57.41
65175;BME280;51761;42.126;24.752;2023-02-04T05:31:25;99151.34;;;5.22;57.12
65175;BME280;51761;42.126;24.752;2023-02-04T05:33:51;99150.16;;;5.23;56.99
65175;BME280;51761;42.126;24.752;2023-02-04T05:36:16;99146.59;;;5.30;56.08
65175;BME280;51761;42.126;24.752;2023-02-04T05:38:42;99160.41;;;5.37;54.73
65175;BME280;51761;42.126;24.752;2023-02-04T05:41:08;99151.34;;;5.26;54.94
65175;BME280;51761;42.126;24.752;2023-02-04T05:43:33;99147.75;;;5.36;54.15
65175;BME280;51761;42.126;24.752;2023-02-04T05:46:00;99154.84;;;5.47;54.36
65175;BME280;51761;42.126;24.752;2023-02-04T05:48:25;99155.66;;;5.44;56.40
65175;BME280;51761;42.126;24.752;2023-02-04T05:50:51;99159.63;;;5.29;53.97
65175;BME280;51761;42.126;24.752;2023-02-04T05:53:17;99158.81;;;5.36;55.00
65175;BME280;51761;42.126;24.752;2023-02-04T05:55:42;99171.88;;;5.39;53.73
65175;BME280;51761;42.126;24.752;2023-02-04T05:58:08;99151.66;;;5.49;55.33
65175;BME280;51761;42.126;24.752;2023-02-04T06:00:33;99145.81;;;5.26;55.20
65175;BME280;51761;42.126;24.752;2023-02-04T06:02:59;99161.16;;;5.51;53.92
65175;BME280;51761;42.126;24.752;2023-02-04T06:05:24;99160.75;;;5.49;55.75
65175;BME280;51761;42.126;24.752;2023-02-04T06:07:50;99168.25;;;5.59;54.52
65175;BME280;51761;42.126;24.752;2023-02-04T06:10:15;99171.00;;;5.59;52.68
65175;BME280;51761;42.126;24.752;2023-02-04T06:12:41;99166.28;;;5.56;53.39
65175;BME280;51761;42.126;24.752;2023-02-04T06:15:07;99169.81;;;5.64;52.29
65175;BME280;51761;42.126;24.752;2023-02-04T06:17:32;99178.47;;;5.76;53.50
65175;BME280;51761;42.126;24.752;2023-02-04T06:19:58;99160.66;;;5.81;54.86
65175;BME280;51761;42.126;24.752;2023-02-04T06:22:25;99154.34;;;5.73;53.23
65175;BME280;51761;42.126;24.752;2023-02-04T06:24:51;99147.63;;;5.74;53.74
65175;BME280;51761;42.126;24.752;2023-02-04T06:27:16;99165.78;;;5.89;52.94
65175;BME280;51761;42.126;24.752;2023-02-04T06:29:51;99161.09;;;5.69;52.06
65175;BME280;51761;42.126;24.752;2023-02-04T06:32:17;99160.31;;;5.61;52.50
65175;BME280;51761;42.126;24.752;2023-02-04T06:34:43;99181.69;;;5.71;53.14
65175;BME280;51761;42.126;24.752;2023-02-04T06:37:09;99171.78;;;5.70;53.67
65175;BME280;51761;42.126;24.752;2023-02-04T06:39:34;99175.72;;;5.73;53.76
65175;BME280;51761;42.126;24.752;2023-02-04T06:42:00;99180.47;;;5.83;55.45
65175;BME280;51761;42.126;24.752;2023-02-04T06:44:25;99165.34;;;5.94;56.06
65175;BME280;51761;42.126;24.752;2023-02-04T06:46:51;99178.81;;;5.92;54.50
65175;BME280;51761;42.126;24.752;2023-02-04T06:49:16;99183.97;;;5.97;54.40
65175;BME280;51761;42.126;24.752;2023-02-04T06:51:41;99188.28;;;6.02;55.13
65175;BME280;51761;42.126;24.752;2023-02-04T06:54:07;99183.56;;;5.95;53.85
65175;BME280;51761;42.126;24.752;2023-02-04T06:56:32;99169.31;;;5.93;55.34
65175;BME280;51761;42.126;24.752;2023-02-04T06:58:58;99191.09;;;5.98;54.26
65175;BME280;51761;42.126;24.752;2023-02-04T07:01:24;99169.69;;;5.95;54.32
65175;BME280;51761;42.126;24.752;2023-02-04T07:03:49;99205.69;;;6.09;54.68
65175;BME280;51761;42.126;24.752;2023-02-04T07:06:15;99187.06;;;6.10;54.68
65175;BME280;51761;42.126;24.752;2023-02-04T07:08:40;99198.16;;;6.74;53.66
65175;BME280;51761;42.126;24.752;2023-02-04T07:11:06;99207.03;;;7.03;51.98
65175;BME280;51761;42.126;24.752;2023-02-04T07:13:31;99193.31;;;6.85;51.81
65175;BME280;51761;42.126;24.752;2023-02-04T07:15:57;99206.19;;;6.58;52.76
65175;BME280;51761;42.126;24.752;2023-02-04T07:18:22;99209.78;;;6.59;53.87
65175;BME280;51761;42.126;24.752;2023-02-04T07:20:48;99216.06;;;6.66;53.48
65175;BME280;51761;42.126;24.752;2023-02-04T07:23:13;99215.56;;;6.82;52.56
65175;BME280;51761;42.126;24.752;2023-02-04T07:25:39;99213.63;;;6.75;52.03
65175;BME280;51761;42.126;24.752;2023-02-04T07:28:05;99194.59;;;6.74;52.15
65175;BME280;51761;42.126;24.752;2023-02-04T07:30:31;99221.38;;;6.98;51.65
65175;BME280;51761;42.126;24.752;2023-02-04T07:32:56;99206.28;;;7.02;51.49
65175;BME280;51761;42.126;24.752;2023-02-04T07:35:22;99212.28;;;6.97;51.43
65175;BME280;51761;42.126;24.752;2023-02-04T07:37:48;99215.06;;;6.94;52.17
65175;BME280;51761;42.126;24.752;2023-02-04T07:40:14;99204.28;;;7.03;52.80
65175;BME280;51761;42.126;24.752;2023-02-04T07:42:40;99181.38;;;6.92;53.01
65175;BME280;51761;42.126;24.752;2023-02-04T07:45:06;99188.13;;;7.72;52.21
65175;BME280;51761;42.126;24.752;2023-02-04T07:47:31;99195.53;;;8.15;51.32
65175;BME280;51761;42.126;24.752;2023-02-04T07:49:57;99190.00;;;8.11;51.27
65175;BME280;51761;42.126;24.752;2023-02-04T07:52:23;99170.56;;;8.91;49.58
65175;BME280;51761;42.126;24.752;2023-02-04T07:54:48;99175.31;;;10.01;47.59
65175;BME280;51761;42.126;24.752;2023-02-04T07:57:14;99162.78;;;11.28;44.42
65175;BME280;51761;42.126;24.752;2023-02-04T07:59:40;99151.03;;;11.93;42.95
65175;BME280;51761;42.126;24.752;2023-02-04T08:02:05;99132.19;;;12.72;43.71
65175;BME280;51761;42.126;24.752;2023-02-04T08:04:31;99134.09;;;13.12;41.07
65175;BME280;51761;42.126;24.752;2023-02-04T08:06:56;99131.41;;;13.77;41.09
65175;BME280;51761;42.126;24.752;2023-02-04T08:09:22;99136.50;;;13.69;39.15
65175;BME280;51761;42.126;24.752;2023-02-04T08:11:48;99119.00;;;12.97;41.06
65175;BME280;51761;42.126;24.752;2023-02-04T08:14:13;99133.19;;;13.15;40.77
65175;BME280;51761;42.126;24.752;2023-02-04T08:16:39;99135.22;;;13.15;42.23
65175;BME280;51761;42.126;24.752;2023-02-04T08:19:04;99124.22;;;13.54;40.60
65175;BME280;51761;42.126;24.752;2023-02-04T08:21:30;99124.63;;;14.08;39.76
65175;BME280;51761;42.126;24.752;2023-02-04T08:23:55;99105.63;;;14.12;38.73
65175;BME280;51761;42.126;24.752;2023-02-04T08:26:21;99120.13;;;14.32;38.46
65175;BME280;51761;42.126;24.752;2023-02-04T08:28:46;99100.69;;;14.46;37.81
65175;BME280;51761;42.126;24.752;2023-02-04T08:31:12;99101.34;;;14.90;37.59
65175;BME280;51761;42.126;24.752;2023-02-04T08:33:38;99106.50;;;15.00;36.95
65175;BME280;51761;42.126;24.752;2023-02-04T08:36:07;99108.44;;;14.73;37.29
65175;BME280;51761;42.126;24.752;2023-02-04T08:38:33;99073.91;;;14.72;36.79
65175;BME280;51761;42.126;24.752;2023-02-04T08:40:58;99067.47;;;14.54;37.59
65175;BME280;51761;42.126;24.752;2023-02-04T08:43:24;99065.34;;;14.67;36.85
65175;BME280;51761;42.126;24.752;2023-02-04T08:45:50;99068.28;;;14.72;36.66
65175;BME280;51761;42.126;24.752;2023-02-04T08:48:15;99088.53;;;15.07;35.76
65175;BME280;51761;42.126;24.752;2023-02-04T08:50:41;99081.22;;;15.27;35.86
65175;BME280;51761;42.126;24.752;2023-02-04T08:53:07;99081.59;;;15.56;34.66
65175;BME280;51761;42.126;24.752;2023-02-04T08:55:32;99091.91;;;15.32;34.10
65175;BME280;51761;42.126;24.752;2023-02-04T08:57:58;99090.72;;;15.12;34.59
65175;BME280;51761;42.126;24.752;2023-02-04T09:00:25;99080.34;;;15.48;33.59
65175;BME280;51761;42.126;24.752;2023-02-04T09:02:51;99091.13;;;15.32;33.21
65175;BME280;51761;42.126;24.752;2023-02-04T09:05:16;99092.38;;;15.31;33.18
65175;BME280;51761;42.126;24.752;2023-02-04T09:07:42;99116.88;;;14.73;33.55
65175;BME280;51761;42.126;24.752;2023-02-04T09:10:07;99116.63;;;14.49;34.24
65175;BME280;51761;42.126;24.752;2023-02-04T09:12:33;99103.13;;;14.66;33.97
65175;BME280;51761;42.126;24.752;2023-02-04T09:14:58;99081.56;;;15.29;34.08
65175;BME280;51761;42.126;24.752;2023-02-04T09:17:24;99089.06;;;15.95;32.76
65175;BME280;51761;42.126;24.752;2023-02-04T09:19:49;99097.91;;;16.29;32.01
65175;BME280;51761;42.126;24.752;2023-02-04T09:22:15;99082.97;;;15.25;32.89
65175;BME280;51761;42.126;24.752;2023-02-04T09:24:40;99074.75;;;14.42;34.28
65175;BME280;51761;42.126;24.752;2023-02-04T09:27:06;99089.09;;;13.71;35.34
65175;BME280;51761;42.126;24.752;2023-02-04T09:29:31;99085.44;;;13.06;36.59
65175;BME280;51761;42.126;24.752;2023-02-04T09:31:57;99076.63;;;12.70;37.19
65175;BME280;51761;42.126;24.752;2023-02-04T09:34:22;99071.81;;;12.21;37.56
65175;BME280;51761;42.126;24.752;2023-02-04T09:36:48;99043.00;;;11.96;38.64
65175;BME280;51761;42.126;24.752;2023-02-04T09:39:14;99060.44;;;11.87;38.26
65175;BME280;51761;42.126;24.752;2023-02-04T09:41:40;99042.78;;;11.78;38.59
65175;BME280;51761;42.126;24.752;2023-02-04T09:44:16;99056.75;;;11.78;39.40
65175;BME280;51761;42.126;24.752;2023-02-04T09:46:51;99058.31;;;11.50;39.11
65175;BME280;51761;42.126;24.752;2023-02-04T09:49:18;99041.53;;;11.50;38.95
65175;BME280;51761;42.126;24.752;2023-02-04T09:51:44;99044.00;;;11.48;39.16
65175;BME280;51761;42.126;24.752;2023-02-04T09:54:13;99048.56;;;11.42;39.64
65175;BME280;51761;42.126;24.752;2023-02-04T09:56:39;99047.34;;;11.43;39.90
65175;BME280;51761;42.126;24.752;2023-02-04T09:59:17;99051.72;;;11.44;40.22
65175;BME280;51761;42.126;24.752;2023-02-04T10:01:46;99034.81;;;11.48;40.20
65175;BME280;51761;42.126;24.752;2023-02-04T10:04:13;99035.13;;;11.37;40.14
65175;BME280;51761;42.126;24.752;2023-02-04T10:06:41;99044.00;;;11.48;39.89
65175;BME280;51761;42.126;24.752;2023-02-04T10:09:10;99036.84;;;11.88;39.13
65175;BME280;51761;42.126;24.752;2023-02-04T10:11:37;99033.66;;;11.61;39.72
65175;BME280;51761;42.126;24.752;2023-02-04T10:14:09;99037.78;;;11.57;40.09
65175;BME280;51761;42.126;24.752;2023-02-04T10:16:37;99031.03;;;11.54;40.27
65175;BME280;51761;42.126;24.752;2023-02-04T10:19:07;99036.16;;;11.43;40.67
65175;BME280;51761;42.126;24.752;2023-02-04T10:21:36;99018.28;;;11.94;39.43
65175;BME280;51761;42.126;24.752;2023-02-04T10:24:05;99013.25;;;12.98;37.65
65175;BME280;51761;42.126;24.752;2023-02-04T10:26:31;99011.94;;;13.67;36.99
65175;BME280;51761;42.126;24.752;2023-02-04T10:29:05;99011.63;;;13.95;36.34
65175;BME280;51761;42.126;24.752;2023-02-04T10:31:34;99019.63;;;14.06;35.81
65175;BME280;51761;42.126;24.752;2023-02-04T10:34:22;99009.50;;;14.38;35.60
65175;BME280;51761;42.126;24.752;2023-02-04T10:36:50;99004.31;;;14.28;35.83
65175;BME280;51761;42.126;24.752;2023-02-04T10:41:54;98993.81;;;13.89;36.20
65175;BME280;51761;42.126;24.752;2023-02-04T10:44:33;98993.44;;;13.78;36.35
65175;BME280;51761;42.126;24.752;2023-02-04T10:47:05;98982.91;;;13.39;37.33
65175;BME280;51761;42.126;24.752;2023-02-04T10:49:32;98992.00;;;13.09;37.47
65175;BME280;51761;42.126;24.752;2023-02-04T10:51:59;98960.22;;;12.57;38.25
65175;BME280;51761;42.126;24.752;2023-02-04T10:54:36;98972.78;;;12.53;38.63
65175;BME280;51761;42.126;24.752;2023-02-04T10:57:26;98997.34;;;12.24;39.21
65175;BME280;51761;42.126;24.752;2023-02-04T10:59:58;98965.78;;;11.86;39.89
65175;BME280;51761;42.126;24.752;2023-02-04T11:05:29;98963.00;;;11.86;41.07
65175;BME280;51761;42.126;24.752;2023-02-04T11:07:55;98958.06;;;11.77;41.01
65175;BME280;51761;42.126;24.752;2023-02-04T11:10:23;98958.50;;;11.76;40.84
65175;BME280;51761;42.126;24.752;2023-02-04T11:15:46;98953.38;;;11.87;40.72
65175;BME280;51761;42.126;24.752;2023-02-04T11:18:25;98956.38;;;12.05;40.43
65175;BME280;51761;42.126;24.752;2023-02-04T11:20:57;98939.22;;;12.15;41.04
65175;BME280;51761;42.126;24.752;2023-02-04T11:26:15;98949.41;;;12.34;40.95
65175;BME280;51761;42.126;24.752;2023-02-04T11:31:22;98925.75;;;12.35;40.85
65175;BME280;51761;42.126;24.752;2023-02-04T11:42:15;98942.16;;;12.24;40.22
65175;BME280;51761;42.126;24.752;2023-02-04T11:44:47;98936.63;;;12.46;40.45
65175;BME280;51761;42.126;24.752;2023-02-04T11:47:13;98936.38;;;12.53;39.68
65175;BME280;51761;42.126;24.752;2023-02-04T11:49:38;98917.00;;;12.79;39.58
65175;BME280;51761;42.126;24.752;2023-02-04T11:52:05;98905.25;;;13.06;39.89
65175;BME280;51761;42.126;24.752;2023-02-04T11:54:34;98921.09;;;12.87;39.91
65175;BME280;51761;42.126;24.752;2023-02-04T11:57:00;98913.91;;;12.31;40.84
65175;BME280;51761;42.126;24.752;2023-02-04T11:59:26;98913.13;;;12.18;41.40
65175;BME280;51761;42.126;24.752;2023-02-04T12:02:06;98911.78;;;12.23;41.56
65175;BME280;51761;42.126;24.752;2023-02-04T12:04:52;98915.41;;;11.98;42.51
65175;BME280;51761;42.126;24.752;2023-02-04T12:07:25;98918.88;;;12.61;41.99
65175;BME280;51761;42.126;24.752;2023-02-04T12:09:51;98909.63;;;12.73;41.01
65175;BME280;51761;42.126;24.752;2023-02-04T12:12:28;98899.66;;;13.06;40.51
65175;BME280;51761;42.126;24.752;2023-02-04T12:15:02;98917.53;;;13.30;40.39
65175;BME280;51761;42.126;24.752;2023-02-04T12:17:28;98895.28;;;13.26;41.08
65175;BME280;51761;42.126;24.752;2023-02-04T12:19:54;98906.66;;;13.32;41.31
65175;BME280;51761;42.126;24.752;2023-02-04T12:22:19;98919.66;;;13.69;41.19
65175;BME280;51761;42.126;24.752;2023-02-04T12:24:45;98925.19;;;13.90;40.81
65175;BME280;51761;42.126;24.752;2023-02-04T12:27:10;98916.34;;;13.92;41.11
65175;BME280;51761;42.126;24.752;2023-02-04T12:29:36;98905.78;;;13.74;41.25
65175;BME280;51761;42.126;24.752;2023-02-04T12:32:01;98906.41;;;13.39;42.02
65175;BME280;51761;42.126;24.752;2023-02-04T12:34:27;98922.41;;;13.08;43.09
65175;BME280;51761;42.126;24.752;2023-02-04T12:36:53;98932.38;;;13.09;43.20
65175;BME280;51761;42.126;24.752;2023-02-04T12:39:18;98926.84;;;12.84;43.85
65175;BME280;51761;42.126;24.752;2023-02-04T12:41:43;98931.06;;;12.67;43.94
65175;BME280;51761;42.126;24.752;2023-02-04T12:44:09;98922.97;;;12.35;44.83
65175;BME280;51761;42.126;24.752;2023-02-04T12:46:34;98939.47;;;12.08;45.23
65175;BME280;51761;42.126;24.752;2023-02-04T12:49:00;98907.78;;;11.36;46.10
65175;BME280;51761;42.126;24.752;2023-02-04T12:51:25;98941.78;;;11.47;46.65
65175;BME280;51761;42.126;24.752;2023-02-04T12:53:51;98937.78;;;11.20;46.76
65175;BME280;51761;42.126;24.752;2023-02-04T12:56:17;98937.94;;;11.00;47.23
65175;BME280;51761;42.126;24.752;2023-02-04T12:58:45;98933.38;;;10.94;47.33
65175;BME280;51761;42.126;24.752;2023-02-04T13:01:10;98945.72;;;10.81;47.91
65175;BME280;51761;42.126;24.752;2023-02-04T13:03:36;98909.47;;;10.49;47.61
65175;BME280;51761;42.126;24.752;2023-02-04T13:06:01;98949.16;;;10.56;48.43
65175;BME280;51761;42.126;24.752;2023-02-04T13:08:27;98940.00;;;10.56;48.12
65175;BME280;51761;42.126;24.752;2023-02-04T13:10:52;98953.09;;;10.59;47.88
65175;BME280;51761;42.126;24.752;2023-02-04T13:13:18;98952.41;;;10.55;48.01
65175;BME280;51761;42.126;24.752;2023-02-04T13:15:44;98952.22;;;10.46;47.95
65175;BME280;51761;42.126;24.752;2023-02-04T13:18:10;98933.75;;;10.20;48.81